Time;durP1;ratioP1;P1;durP2;ratioP2;P2;SDS_P1;SDS_P2;PMS_P1;PMS_P2;Temp;Humidity;BMP_temperature;BMP_pressure;BME280_temperature;BME280_humidity;BME280_pressure;Samples;Min_cycle;Max_cycle;Signal;HPM_P1;HPM_P2
2022/12/11 00:00:52;;;;;;;26.10;8.33;;;-0.50;99.90;;;;;;5071822;28;20048;-82
2022/12/11 00:03:20;;;;;;;29.13;9.07;;;-0.40;99.90;;;;;;5071831;28;20049;-83
2022/12/11 00:05:46;;;;;;;26.07;9.57;;;-0.40;99.90;;;;;;5071714;28;20052;-82
2022/12/11 00:08:12;;;;;;;31.50;10.03;;;-0.40;99.90;;;;;;5055290;28;20525;-83
2022/12/11 00:10:38;;;;;;;26.13;10.60;;;-0.40;99.90;;;;;;5072074;28;20390;-83
2022/12/11 00:13:04;;;;;;;31.67;9.50;;;-0.40;99.90;;;;;;5071669;28;20048;-82
2022/12/11 00:15:30;;;;;;;30.07;7.70;;;-0.40;99.90;;;;;;5071633;28;20128;-82
2022/12/11 00:17:55;;;;;;;29.40;11.00;;;-0.40;99.90;;;;;;5082906;28;20071;-83
2022/12/11 00:20:21;;;;;;;25.83;8.73;;;-0.40;99.90;;;;;;5095291;28;20050;-82
2022/12/11 00:22:47;;;;;;;31.20;9.67;;;-0.40;99.90;;;;;;5095220;28;20090;-82
2022/12/11 00:25:12;;;;;;;30.37;8.83;;;-0.40;99.90;;;;;;5112088;28;20048;-80
2022/12/11 00:27:38;;;;;;;29.13;9.47;;;-0.40;99.90;;;;;;5095093;28;20051;-80
2022/12/11 00:30:04;;;;;;;31.77;10.13;;;-0.40;99.90;;;;;;5111942;28;20085;-80
2022/12/11 00:32:30;;;;;;;33.97;8.90;;;-0.40;99.90;;;;;;5111822;28;20039;-80
2022/12/11 00:34:56;;;;;;;28.67;9.33;;;-0.40;99.90;;;;;;5094997;28;20039;-80
2022/12/11 00:37:23;;;;;;;29.90;10.20;;;-0.20;99.90;;;;;;5111759;28;20071;-80
2022/12/11 00:39:48;;;;;;;25.27;8.10;;;-0.30;99.90;;;;;;5095342;28;20048;-80
2022/12/11 00:42:14;;;;;;;31.70;10.53;;;-0.40;99.90;;;;;;5112137;28;20047;-79
2022/12/11 00:44:40;;;;;;;22.80;8.07;;;-0.30;99.90;;;;;;5111747;28;20477;-79
2022/12/11 00:47:06;;;;;;;25.27;8.67;;;-0.30;99.90;;;;;;5112065;28;20058;-79
2022/12/11 00:49:31;;;;;;;27.33;9.10;;;-0.30;99.90;;;;;;5111702;28;20538;-79
2022/12/11 00:51:57;;;;;;;22.07;8.60;;;-0.30;99.90;;;;;;5086167;28;20131;-79
2022/12/11 00:54:23;;;;;;;29.53;9.30;;;-0.30;99.90;;;;;;5054516;28;20390;-79
2022/12/11 00:56:49;;;;;;;20.73;8.50;;;-0.30;99.90;;;;;;5071386;28;20375;-80
2022/12/11 00:59:15;;;;;;;29.23;9.40;;;-0.30;99.90;;;;;;5054690;28;20068;-80
2022/12/11 01:01:41;;;;;;;28.27;8.97;;;-0.30;99.90;;;;;;5071080;28;20095;-80
2022/12/11 01:04:07;;;;;;;24.30;9.27;;;-0.30;99.90;;;;;;5070982;28;20044;-80
2022/12/11 01:06:32;;;;;;;27.00;9.63;;;-0.30;99.90;;;;;;5070860;28;20076;-80
2022/12/11 01:11:42;;;;;;;28.00;10.17;;;-0.20;99.90;;;;;;5071021;28;20052;-80
2022/12/11 01:14:09;;;;;;;34.60;9.97;;;-0.30;99.90;;;;;;5070967;28;20032;-86
2022/12/11 01:16:35;;;;;;;24.40;8.67;;;-0.20;99.90;;;;;;5076598;28;20043;-86
2022/12/11 01:19:02;;;;;;;27.07;9.20;;;-0.30;99.90;;;;;;5113953;22;20044;-82
2022/12/11 01:21:27;;;;;;;28.13;10.37;;;0.00;99.90;;;;;;5091156;28;20040;-82
2022/12/11 01:23:53;;;;;;;28.60;10.27;;;-0.20;99.90;;;;;;5091018;28;20036;-82
2022/12/11 01:26:19;;;;;;;34.77;9.73;;;-0.20;99.90;;;;;;5074201;28;20119;-82
2022/12/11 01:28:48;;;;;;;28.53;9.13;;;-0.20;99.90;;;;;;5091052;28;20040;-82
2022/12/11 01:31:16;;;;;;;26.30;10.20;;;-0.20;99.90;;;;;;5091059;28;20066;-82
2022/12/11 01:33:42;;;;;;;22.07;8.03;;;-0.20;99.90;;;;;;5091000;28;20040;-82
2022/12/11 01:36:10;;;;;;;21.50;8.97;;;-0.20;99.90;;;;;;5074089;28;20131;-82
2022/12/11 01:38:36;;;;;;;28.10;10.27;;;-0.20;99.90;;;;;;5090906;28;20040;-82
2022/12/11 01:41:02;;;;;;;30.67;9.73;;;-0.20;99.90;;;;;;5074275;28;20044;-83
2022/12/11 01:43:28;;;;;;;27.60;9.67;;;-0.10;99.90;;;;;;5091137;28;20051;-82
2022/12/11 01:45:54;;;;;;;29.20;10.97;;;-0.10;99.90;;;;;;5074284;28;20048;-82
2022/12/11 01:48:27;;;;;;;24.20;8.87;;;-0.10;99.90;;;;;;5091106;28;20554;-86
2022/12/11 01:50:56;;;;;;;27.63;9.37;;;-0.10;99.90;;;;;;5087060;28;20131;-86
2022/12/11 01:53:51;;;;;;;28.83;9.53;;;-0.10;99.90;;;;;;5070540;28;20455;-86
2022/12/11 01:56:18;;;;;;;31.17;9.87;;;-0.10;99.90;;;;;;5069690;28;20063;-80
2022/12/11 01:58:50;;;;;;;33.23;11.00;;;-0.10;99.90;;;;;;5053654;28;20048;-79
2022/12/11 02:02:04;;;;;;;35.00;11.27;;;-0.10;99.90;;;;;;5070499;28;20040;-79
2022/12/11 02:04:32;;;;;;;26.80;9.57;;;-0.10;99.90;;;;;;5036867;28;20036;-82
2022/12/11 02:06:57;;;;;;;31.23;9.67;;;-0.10;99.90;;;;;;5056282;28;20059;-82
2022/12/11 02:09:29;;;;;;;33.57;9.17;;;-0.10;99.90;;;;;;5063176;28;20056;-83
2022/12/11 02:12:01;;;;;;;35.30;9.73;;;0.00;99.90;;;;;;5057326;28;20119;-83
2022/12/11 02:14:38;;;;;;;28.33;9.27;;;0.00;99.90;;;;;;5074371;28;20052;-82
2022/12/11 02:17:28;;;;;;;26.97;10.47;;;0.00;99.90;;;;;;5064019;28;20044;-82
2022/12/11 02:20:02;;;;;;;27.90;8.27;;;0.00;99.90;;;;;;5093827;28;20056;-80
2022/12/11 02:22:50;;;;;;;27.83;9.90;;;0.00;99.90;;;;;;5094012;28;20040;-80
2022/12/11 02:25:38;;;;;;;21.93;8.70;;;0.00;99.90;;;;;;5094226;28;20076;-80
2022/12/11 02:28:16;;;;;;;32.13;9.87;;;0.00;99.90;;;;;;5093609;28;20051;-80
2022/12/11 02:30:48;;;;;;;27.30;9.23;;;0.00;99.90;;;;;;5093801;28;20036;-80
2022/12/11 02:33:15;;;;;;;34.97;8.97;;;0.00;99.90;;;;;;5077414;28;20502;-80
2022/12/11 02:35:44;;;;;;;31.27;8.83;;;0.00;99.90;;;;;;5094262;28;20043;-80
2022/12/11 02:38:24;;;;;;;32.90;10.27;;;0.00;99.90;;;;;;5076804;28;20055;-80
2022/12/11 02:40:53;;;;;;;27.07;9.07;;;0.10;99.90;;;;;;5093706;28;20177;-80
2022/12/11 02:43:21;;;;;;;33.00;10.30;;;0.10;99.90;;;;;;5077066;28;20097;-80
2022/12/11 02:45:48;;;;;;;28.07;8.90;;;0.10;99.90;;;;;;5093811;28;20371;-80
2022/12/11 02:48:16;;;;;;;29.10;7.90;;;0.10;99.90;;;;;;5076350;28;20043;-80
2022/12/11 02:50:46;;;;;;;32.43;9.63;;;0.10;99.90;;;;;;5076813;28;20390;-80
2022/12/11 02:53:15;;;;;;;29.17;9.00;;;0.10;99.90;;;;;;5093795;28;20040;-82
2022/12/11 02:55:42;;;;;;;41.07;11.83;;;0.70;99.90;;;;;;5093642;28;20040;-83
2022/12/11 02:58:13;;;;;;;26.33;9.83;;;0.10;99.90;;;;;;5076372;28;20040;-82
2022/12/11 03:00:39;;;;;;;26.40;9.17;;;0.10;99.90;;;;;;5093351;28;20036;-83
2022/12/11 03:03:05;;;;;;;33.07;8.60;;;0.10;99.90;;;;;;5093117;28;20074;-83
2022/12/11 03:05:31;;;;;;;19.63;7.97;;;0.10;99.90;;;;;;5093182;28;20036;-83
2022/12/11 03:07:56;;;;;;;20.67;7.53;;;0.10;99.90;;;;;;5076387;28;20051;-83
2022/12/11 03:10:23;;;;;;;33.70;9.50;;;0.10;99.90;;;;;;5093176;28;20044;-81
2022/12/11 03:12:53;;;;;;;23.57;7.93;;;0.10;99.90;;;;;;5076589;28;20044;-80
2022/12/11 03:15:22;;;;;;;28.63;9.37;;;0.10;99.90;;;;;;5093092;28;20127;-80
2022/12/11 03:18:11;;;;;;;32.13;9.07;;;0.10;99.90;;;;;;5092820;28;20058;-80
2022/12/11 03:20:42;;;;;;;27.30;9.67;;;0.10;99.90;;;;;;5075613;28;20044;-80
2022/12/11 03:23:14;;;;;;;24.33;9.27;;;0.20;99.90;;;;;;5093079;28;20040;-80
2022/12/11 03:25:52;;;;;;;23.20;8.90;;;0.10;99.90;;;;;;5093043;28;20050;-80
2022/12/11 03:28:32;;;;;;;36.37;10.43;;;0.20;99.90;;;;;;5092839;28;20494;-83
2022/12/11 03:31:04;;;;;;;29.23;8.67;;;0.20;99.90;;;;;;5075841;28;20520;-83
2022/12/11 03:33:46;;;;;;;26.10;8.40;;;0.20;99.90;;;;;;5076118;28;20040;-83
2022/12/11 03:36:24;;;;;;;31.33;8.43;;;0.10;99.90;;;;;;5092656;28;20058;-83
2022/12/11 03:38:57;;;;;;;28.60;9.03;;;0.40;99.90;;;;;;5092481;28;20050;-83
2022/12/11 03:41:25;;;;;;;26.30;8.40;;;0.10;99.90;;;;;;5075900;28;20398;-83
2022/12/11 03:43:55;;;;;;;39.33;9.57;;;0.20;99.90;;;;;;5092469;28;20398;-80
2022/12/11 03:46:23;;;;;;;39.07;10.27;;;0.20;99.90;;;;;;5092600;28;20088;-80
2022/12/11 03:48:50;;;;;;;26.87;8.90;;;0.20;99.90;;;;;;5075732;28;20093;-80
2022/12/11 03:51:17;;;;;;;35.40;10.07;;;0.20;99.90;;;;;;5085677;28;20067;-80
2022/12/11 03:53:43;;;;;;;23.47;7.47;;;1.00;99.90;;;;;;5072031;28;20045;-80
2022/12/11 03:56:11;;;;;;;30.47;10.87;;;0.20;99.90;;;;;;5055371;28;20033;-80
2022/12/11 03:58:37;;;;;;;26.10;9.00;;;0.20;99.90;;;;;;5055167;28;20045;-80
2022/12/11 04:01:07;;;;;;;29.13;8.20;;;1.60;99.90;;;;;;5055169;28;20394;-80
2022/12/11 04:03:32;;;;;;;27.90;10.23;;;0.20;99.90;;;;;;5054994;28;20071;-80
2022/12/11 04:05:58;;;;;;;30.77;8.40;;;0.20;99.90;;;;;;5038474;28;20032;-80
2022/12/11 04:08:24;;;;;;;29.60;9.47;;;1.10;99.90;;;;;;5071957;28;20044;-80
2022/12/11 04:11:33;;;;;;;26.40;9.80;;;1.60;99.90;;;;;;5038498;28;20032;-80
2022/12/11 04:13:39;;;;;;;27.20;8.50;;;0.20;99.90;;;;;;5071452;28;20048;-81
2022/12/11 04:16:06;;;;;;;32.40;10.50;;;0.20;99.90;;;;;;5071603;28;20045;-81
2022/12/11 04:24:15;;;;;;;32.30;9.80;;;0.20;99.90;;;;;;5077521;28;20044;-80
2022/12/11 04:26:42;;;;;;;38.53;10.93;;;0.20;99.90;;;;;;5091574;28;20036;-80
2022/12/11 04:29:08;;;;;;;30.17;9.47;;;0.20;99.90;;;;;;5091469;28;20043;-80
2022/12/11 04:31:33;;;;;;;29.73;8.70;;;0.20;99.90;;;;;;5091507;28;20051;-80
2022/12/11 04:33:59;;;;;;;33.73;9.33;;;0.20;99.90;;;;;;5091951;28;20336;-80
2022/12/11 04:36:25;;;;;;;30.33;9.93;;;1.20;99.90;;;;;;5074720;28;20044;-80
2022/12/11 04:38:50;;;;;;;32.80;9.50;;;0.20;99.90;;;;;;5074576;28;20131;-80
2022/12/11 04:41:16;;;;;;;34.53;9.23;;;0.70;99.90;;;;;;5074930;28;20097;-81
2022/12/11 04:43:45;;;;;;;31.60;10.13;;;1.50;99.90;;;;;;5091503;28;20454;-81
2022/12/11 04:46:17;;;;;;;33.50;11.80;;;1.50;99.90;;;;;;5091403;28;20032;-81
2022/12/11 04:48:43;;;;;;;24.87;8.53;;;0.50;99.90;;;;;;5091631;28;20428;-81
2022/12/11 04:51:10;;;;;;;32.03;9.33;;;0.20;99.90;;;;;;5085431;28;20119;-87
2022/12/11 04:53:36;;;;;;;31.90;9.63;;;0.20;99.90;;;;;;5054718;28;20090;-87
2022/12/11 04:56:07;;;;;;;25.93;9.13;;;0.20;99.90;;;;;;5071070;28;20082;-86
2022/12/11 04:58:34;;;;;;;32.17;10.70;;;0.20;99.90;;;;;;5071051;28;20552;-87
2022/12/11 05:01:06;;;;;;;36.63;10.47;;;0.20;99.90;;;;;;5037952;28;20067;-87
2022/12/11 05:03:32;;;;;;;31.80;10.50;;;0.20;99.90;;;;;;5054736;28;20734;-87
2022/12/11 05:05:57;;;;;;;28.80;9.90;;;1.50;99.90;;;;;;5071369;28;20048;-87
2022/12/11 05:08:23;;;;;;;34.43;9.80;;;0.20;99.90;;;;;;5054433;28;20044;-84
2022/12/11 05:11:03;;;;;;;36.33;9.20;;;0.20;99.90;;;;;;5071020;28;20420;-83
2022/12/11 05:13:29;;;;;;;30.17;10.20;;;0.30;99.90;;;;;;5071326;28;20045;-84
2022/12/11 05:15:55;;;;;;;23.20;9.10;;;0.20;99.90;;;;;;5070979;28;20040;-84
2022/12/11 05:18:21;;;;;;;27.00;9.33;;;0.30;99.90;;;;;;5088441;28;20111;-84
2022/12/11 05:21:02;;;;;;;24.47;8.73;;;0.20;99.90;;;;;;5091053;28;20092;-84
2022/12/11 05:23:28;;;;;;;27.70;8.63;;;0.30;99.90;;;;;;5074609;28;20131;-81
2022/12/11 05:25:59;;;;;;;27.23;9.50;;;0.20;99.90;;;;;;5074431;28;20179;-81
2022/12/11 05:28:26;;;;;;;27.60;9.00;;;0.20;99.90;;;;;;5091624;28;20398;-81
2022/12/11 05:31:00;;;;;;;23.77;9.13;;;0.30;99.90;;;;;;5091015;28;20040;-81
2022/12/11 05:33:27;;;;;;;29.33;9.60;;;0.30;99.90;;;;;;5074132;28;20055;-81
2022/12/11 05:35:52;;;;;;;26.00;9.07;;;0.30;99.90;;;;;;5074390;28;20394;-81
2022/12/11 05:38:18;;;;;;;24.87;8.50;;;0.30;99.90;;;;;;5074004;28;20032;-81
2022/12/11 05:40:44;;;;;;;34.77;10.27;;;0.20;99.90;;;;;;5094173;28;20131;-84
2022/12/11 05:43:09;;;;;;;24.83;9.37;;;0.20;99.90;;;;;;5094839;28;20098;-84
2022/12/11 05:45:36;;;;;;;31.97;9.20;;;1.40;99.90;;;;;;5094833;28;20032;-84
2022/12/11 05:48:01;;;;;;;26.50;9.43;;;0.20;99.90;;;;;;5094650;28;20389;-84
2022/12/11 05:50:27;;;;;;;30.13;10.10;;;0.20;99.90;;;;;;5094871;28;20047;-84
2022/12/11 05:52:53;;;;;;;32.07;9.97;;;0.20;99.90;;;;;;5077800;28;20312;-84
2022/12/11 05:55:18;;;;;;;32.47;9.77;;;0.20;99.90;;;;;;5094615;28;20511;-84
2022/12/11 05:57:44;;;;;;;33.27;9.20;;;0.60;99.90;;;;;;5094390;28;20048;-86
2022/12/11 06:00:12;;;;;;;29.43;9.17;;;0.20;99.90;;;;;;5094461;28;20040;-87
2022/12/11 06:02:38;;;;;;;32.63;10.23;;;0.20;99.90;;;;;;5094495;28;20050;-87
2022/12/11 06:05:03;;;;;;;33.63;10.13;;;0.20;99.90;;;;;;5094353;28;20040;-87
2022/12/11 06:07:29;;;;;;;30.93;9.97;;;0.30;99.90;;;;;;5094361;28;20093;-87
2022/12/11 06:09:55;;;;;;;31.40;10.80;;;0.20;99.90;;;;;;5060747;28;20040;-87
2022/12/11 06:12:20;;;;;;;25.00;10.10;;;0.20;99.90;;;;;;5094254;28;20052;-87
2022/12/11 06:14:46;;;;;;;32.40;9.37;;;0.20;99.90;;;;;;5077680;28;20046;-86
2022/12/11 06:17:12;;;;;;;38.17;11.37;;;0.20;99.90;;;;;;5069331;28;20414;-87
2022/12/11 06:19:37;;;;;;;27.90;8.53;;;0.30;99.90;;;;;;5073894;28;20054;-87
2022/12/11 06:22:04;;;;;;;34.23;10.40;;;0.20;99.90;;;;;;5056993;28;20056;-87
2022/12/11 06:24:29;;;;;;;31.90;10.10;;;0.20;99.90;;;;;;5057334;28;20079;-87
2022/12/11 06:26:55;;;;;;;30.00;9.97;;;0.10;99.90;;;;;;5040515;28;20429;-87
2022/12/11 06:29:21;;;;;;;26.73;8.57;;;0.30;99.90;;;;;;5057041;28;20037;-86
2022/12/11 06:31:46;;;;;;;24.23;8.77;;;0.30;99.90;;;;;;5057124;28;20102;-87
2022/12/11 06:34:13;;;;;;;33.03;11.37;;;0.20;99.90;;;;;;5057195;28;20044;-87
2022/12/11 06:36:39;;;;;;;28.40;10.70;;;0.30;99.90;;;;;;5073542;28;20119;-87
2022/12/11 06:39:05;;;;;;;31.03;10.70;;;0.30;99.90;;;;;;5073509;28;20055;-87
2022/12/11 06:41:30;;;;;;;29.57;11.13;;;0.30;99.90;;;;;;5073659;28;20044;-87
2022/12/11 06:43:56;;;;;;;31.87;9.80;;;0.30;99.90;;;;;;5073363;28;20403;-87
2022/12/11 06:46:22;;;;;;;35.93;10.93;;;0.30;99.90;;;;;;5073671;28;20047;-81
2022/12/11 06:48:48;;;;;;;33.13;9.83;;;0.30;99.90;;;;;;5039903;28;20044;-81
2022/12/11 06:51:20;;;;;;;31.70;9.60;;;0.30;99.90;;;;;;5063214;28;20036;-81
2022/12/11 06:53:53;;;;;;;27.63;9.63;;;0.30;99.90;;;;;;5076681;28;20119;-81
2022/12/11 06:56:20;;;;;;;32.43;10.03;;;0.30;99.90;;;;;;5076555;28;20097;-81
2022/12/11 06:58:46;;;;;;;28.80;9.30;;;0.20;99.90;;;;;;5081929;28;20048;-81
2022/12/11 07:01:19;;;;;;;30.13;9.27;;;0.30;99.90;;;;;;5073041;28;20041;-81
2022/12/11 07:03:45;;;;;;;29.57;10.57;;;0.30;99.90;;;;;;5073358;28;20075;-80
2022/12/11 07:06:12;;;;;;;29.30;10.03;;;2.10;99.90;;;;;;5056369;28;20101;-80
2022/12/11 07:08:38;;;;;;;35.10;9.80;;;0.30;99.90;;;;;;5072987;28;20086;-80
2022/12/11 07:11:10;;;;;;;29.70;10.43;;;0.30;99.90;;;;;;5056448;28;20143;-80
2022/12/11 07:13:36;;;;;;;23.93;8.90;;;0.30;99.90;;;;;;5073076;28;20148;-80
2022/12/11 07:16:03;;;;;;;26.53;9.00;;;0.30;99.90;;;;;;5072766;28;20040;-80
2022/12/11 07:18:30;;;;;;;37.63;9.83;;;0.30;99.90;;;;;;5074395;28;20043;-80
2022/12/11 07:20:59;;;;;;;30.30;9.83;;;0.30;99.90;;;;;;5092859;28;20487;-80
2022/12/11 07:23:27;;;;;;;31.40;10.70;;;0.30;99.90;;;;;;5092909;28;20043;-80
2022/12/11 07:25:53;;;;;;;32.50;9.10;;;0.30;99.90;;;;;;5092838;28;20047;-80
2022/12/11 07:28:18;;;;;;;27.70;11.10;;;0.30;99.90;;;;;;5093112;28;20123;-80
2022/12/11 07:30:44;;;;;;;32.23;10.17;;;1.70;99.90;;;;;;5092730;28;20079;-80
2022/12/11 07:33:10;;;;;;;27.47;10.10;;;0.30;99.90;;;;;;5059400;28;20043;-80
2022/12/11 07:35:36;;;;;;;29.77;9.97;;;-0.10;99.90;;;;;;5075864;28;20044;-80
2022/12/11 07:38:01;;;;;;;27.90;10.03;;;0.30;99.90;;;;;;5059112;28;20090;-80
2022/12/11 07:40:27;;;;;;;33.40;10.40;;;0.30;99.90;;;;;;5075748;28;20138;-87
2022/12/11 07:42:53;;;;;;;26.07;10.40;;;0.30;99.90;;;;;;5075613;28;20460;-87
2022/12/11 07:45:18;;;;;;;30.17;10.30;;;0.30;99.90;;;;;;5092787;28;20092;-87
2022/12/11 07:47:44;;;;;;;34.30;11.50;;;0.30;99.90;;;;;;5092409;28;20401;-87
2022/12/11 07:50:10;;;;;;;34.33;9.97;;;0.30;99.90;;;;;;5075462;28;20079;-87
2022/12/11 07:52:35;;;;;;;29.07;10.90;;;0.40;99.90;;;;;;5074187;28;20037;-87
2022/12/11 07:55:01;;;;;;;34.17;11.53;;;0.30;99.90;;;;;;5056014;28;20056;-80
2022/12/11 07:57:28;;;;;;;37.23;10.73;;;0.40;99.90;;;;;;5055345;28;20044;-80
2022/12/11 07:59:54;;;;;;;25.57;9.17;;;0.40;99.90;;;;;;5072165;28;20044;-80
2022/12/11 08:02:20;;;;;;;28.83;10.97;;;0.40;99.90;;;;;;5054551;28;20032;-80
2022/12/11 08:04:46;;;;;;;29.57;11.27;;;0.40;99.90;;;;;;5038894;28;20485;-80
2022/12/11 08:07:12;;;;;;;38.97;12.47;;;0.40;99.90;;;;;;5071748;28;20131;-80
2022/12/11 08:09:38;;;;;;;30.13;10.23;;;0.40;99.90;;;;;;5055029;28;20127;-86
2022/12/11 08:12:04;;;;;;;30.33;10.97;;;0.40;99.90;;;;;;5038776;28;20044;-87
2022/12/11 08:14:29;;;;;;;34.33;11.00;;;0.40;99.90;;;;;;5055001;28;20040;-86
2022/12/11 08:16:56;;;;;;;38.00;11.83;;;0.40;99.90;;;;;;5077291;28;20058;-87
2022/12/11 08:19:22;;;;;;;30.83;11.07;;;0.40;99.90;;;;;;5058723;28;20115;-86
2022/12/11 08:21:48;;;;;;;31.90;10.87;;;0.40;99.90;;;;;;5074683;28;20177;-81
2022/12/11 08:24:18;;;;;;;37.53;10.27;;;0.40;99.90;;;;;;5091937;28;20472;-81
2022/12/11 08:26:45;;;;;;;42.23;12.53;;;0.80;99.90;;;;;;5075916;28;20047;-81
2022/12/11 08:29:11;;;;;;;40.07;11.87;;;0.40;99.90;;;;;;5091645;28;20489;-80
2022/12/11 08:31:38;;;;;;;32.90;11.17;;;0.50;99.90;;;;;;5075115;28;20131;-80
2022/12/11 08:34:04;;;;;;;31.17;10.70;;;0.50;99.90;;;;;;5074632;28;20044;-80
2022/12/11 08:36:30;;;;;;;30.60;10.73;;;0.50;99.90;;;;;;5091575;28;20089;-80
2022/12/11 08:38:56;;;;;;;31.87;11.97;;;0.50;99.90;;;;;;5074527;28;20117;-80
2022/12/11 08:41:27;;;;;;;32.60;11.07;;;0.50;99.90;;;;;;5091478;28;20074;-80
2022/12/11 08:43:54;;;;;;;38.23;11.77;;;0.50;99.90;;;;;;5091493;28;20043;-81
2022/12/11 08:46:24;;;;;;;29.77;11.13;;;0.50;99.90;;;;;;5074691;28;20036;-87
2022/12/11 08:48:50;;;;;;;35.83;11.73;;;0.50;99.90;;;;;;5074551;28;20079;-86
2022/12/11 08:51:19;;;;;;;28.00;9.87;;;0.70;99.90;;;;;;5084233;28;20089;-86
2022/12/11 08:53:45;;;;;;;34.40;11.57;;;0.50;99.90;;;;;;5071418;28;20393;-86
2022/12/11 08:56:19;;;;;;;41.10;12.67;;;0.50;99.90;;;;;;5071197;28;20521;-87
2022/12/11 08:58:45;;;;;;;34.33;12.07;;;1.70;99.90;;;;;;5071428;28;20032;-86
2022/12/11 09:01:20;;;;;;;37.13;12.13;;;0.60;99.90;;;;;;5071375;28;20033;-80
2022/12/11 09:03:46;;;;;;;42.30;11.60;;;1.10;99.90;;;;;;5070709;28;20040;-80
2022/12/11 09:06:15;;;;;;;40.17;12.53;;;0.60;99.90;;;;;;5055449;28;20041;-80
2022/12/11 09:08:42;;;;;;;37.13;12.27;;;0.60;99.90;;;;;;5055072;28;20047;-80
2022/12/11 09:11:13;;;;;;;38.97;11.37;;;0.70;99.90;;;;;;5071876;28;20401;-80
2022/12/11 09:13:40;;;;;;;31.37;11.47;;;0.70;99.90;;;;;;5073351;28;20390;-80
2022/12/11 09:16:08;;;;;;;38.23;12.50;;;0.70;99.90;;;;;;5075811;28;20040;-80
2022/12/11 09:18:35;;;;;;;31.93;12.00;;;0.70;99.90;;;;;;5076543;28;20046;-83
2022/12/11 09:21:03;;;;;;;33.37;11.57;;;0.70;99.90;;;;;;5076336;28;20052;-83
2022/12/11 09:23:28;;;;;;;35.60;13.00;;;0.70;99.90;;;;;;5076923;28;20119;-83
2022/12/11 09:25:54;;;;;;;34.53;11.97;;;0.80;99.90;;;;;;5059734;28;20123;-83
2022/12/11 09:28:20;;;;;;;38.43;11.30;;;1.70;99.90;;;;;;5059354;28;20101;-83
2022/12/11 09:30:46;;;;;;;39.87;12.67;;;1.30;99.90;;;;;;5076457;28;20062;-83
2022/12/11 09:33:11;;;;;;;35.63;11.70;;;0.90;99.90;;;;;;5059691;28;20040;-86
2022/12/11 09:35:37;;;;;;;29.43;11.77;;;0.90;99.90;;;;;;5075776;28;20127;-86
2022/12/11 09:38:03;;;;;;;32.57;10.10;;;0.80;99.90;;;;;;5075063;28;20047;-85
2022/12/11 09:40:30;;;;;;;36.27;12.07;;;0.90;99.90;;;;;;5058076;28;20040;-86
2022/12/11 09:42:58;;;;;;;40.13;11.70;;;1.00;99.90;;;;;;5075207;28;20047;-86
2022/12/11 09:45:24;;;;;;;32.93;11.03;;;0.90;99.90;;;;;;5074563;28;20037;-85
2022/12/11 09:47:54;;;;;;;30.47;10.80;;;0.70;99.90;;;;;;5057714;28;20123;-86
2022/12/11 09:50:32;;;;;;;33.53;10.53;;;1.20;99.90;;;;;;5074463;28;20048;-80
2022/12/11 09:53:25;;;;;;;50.43;14.00;;;0.90;99.90;;;;;;5058036;28;20470;-81
2022/12/11 09:56:10;;;;;;;35.93;11.63;;;0.90;99.90;;;;;;5074575;28;20154;-80
2022/12/11 09:59:18;;;;;;;30.60;11.73;;;0.90;99.90;;;;;;5074302;28;20044;-80
2022/12/11 10:02:02;;;;;;;38.10;11.52;;;0.90;99.90;;;;;;5033106;28;20659;-80
2022/12/11 10:04:54;;;;;;;36.87;12.40;;;0.90;99.90;;;;;;5068996;28;20084;-80
2022/12/11 10:07:25;;;;;;;32.77;11.37;;;1.00;99.90;;;;;;5055663;28;20054;-80
2022/12/11 10:10:04;;;;;;;33.27;12.13;;;1.00;99.90;;;;;;5074387;28;20486;-80
2022/12/11 10:12:41;;;;;;;35.90;12.03;;;1.00;99.90;;;;;;5074100;28;20485;-80
2022/12/11 10:15:38;;;;;;;31.93;11.47;;;1.00;99.90;;;;;;5057600;28;20052;-80
2022/12/11 10:18:10;;;;;;;31.92;12.55;;;1.10;99.90;;;;;;5073782;28;20044;-85
2022/12/11 10:20:39;;;;;;;31.50;10.80;;;2.10;99.90;;;;;;5073675;28;20079;-85
2022/12/11 10:23:15;;;;;;;30.00;10.80;;;1.20;99.90;;;;;;5057488;28;20111;-80
2022/12/11 10:26:05;;;;;;;33.43;11.57;;;1.10;99.90;;;;;;5073085;28;20040;-80
2022/12/11 10:28:31;;;;;;;32.67;10.60;;;1.10;99.90;;;;;;5073272;28;20064;-80
2022/12/11 10:31:02;;;;;;;36.77;11.13;;;1.10;99.90;;;;;;5056965;28;20048;-80
2022/12/11 10:33:56;;;;;;;34.00;11.77;;;2.10;99.90;;;;;;5073694;28;20044;-80
2022/12/11 10:36:31;;;;;;;29.20;10.73;;;1.20;99.90;;;;;;5073949;28;20037;-80
2022/12/11 10:38:57;;;;;;;35.43;12.37;;;1.20;99.90;;;;;;5056790;28;20563;-80
2022/12/11 10:41:34;;;;;;;23.00;10.37;;;1.20;99.90;;;;;;5073651;28;20123;-82
2022/12/11 10:44:12;;;;;;;30.00;11.23;;;1.30;99.90;;;;;;5073903;28;20134;-82
2022/12/11 10:46:38;;;;;;;34.70;11.03;;;1.50;99.90;;;;;;5056957;28;20494;-82
2022/12/11 10:49:03;;;;;;;36.00;12.27;;;1.10;99.90;;;;;;5057009;28;20135;-82
2022/12/11 10:51:29;;;;;;;31.27;10.90;;;1.30;99.90;;;;;;5082233;28;20390;-82
2022/12/11 10:54:20;;;;;;;26.83;9.70;;;1.40;99.90;;;;;;5094220;28;20036;-82
2022/12/11 10:56:47;;;;;;;32.23;10.77;;;1.40;99.90;;;;;;5092725;28;20127;-80
2022/12/11 10:59:44;;;;;;;28.33;10.70;;;1.00;99.90;;;;;;5076583;28;20044;-82
2022/12/11 11:02:30;;;;;;;31.30;10.95;;;1.00;99.90;;;;;;5092157;28;20098;-82
2022/12/11 11:04:58;;;;;;;28.73;10.32;;;1.30;99.90;;;;;;5093427;28;20505;-82
2022/12/11 11:07:28;;;;;;;28.73;10.67;;;1.40;99.90;;;;;;5076791;28;20048;-82
2022/12/11 11:10:15;;;;;;;31.00;11.53;;;1.10;99.90;;;;;;5093259;28;20512;-83
2022/12/11 11:12:40;;;;;;;;;;;1.50;99.90;;;;;;5094035;28;20070;-82
2022/12/11 11:15:27;;;;;;;32.70;11.23;;;1.30;99.90;;;;;;5093730;28;19916;-83
2022/12/11 11:17:55;;;;;;;30.33;12.30;;;1.40;99.90;;;;;;5062722;28;20055;-83
2022/12/11 11:20:30;;;;;;;32.30;10.93;;;1.40;99.90;;;;;;5073097;28;20099;-82
2022/12/11 11:22:59;;;;;;;31.43;11.63;;;1.40;99.90;;;;;;5056357;28;20055;-82
2022/12/11 11:25:28;;;;;;;31.97;11.67;;;1.40;99.90;;;;;;5056191;28;20037;-82
2022/12/11 11:27:56;;;;;;;30.80;12.63;;;1.40;99.90;;;;;;5073311;28;20040;-82
2022/12/11 11:30:26;;;;;;;28.13;12.67;;;1.40;99.90;;;;;;5072710;28;20450;-80
2022/12/11 11:32:55;;;;;;;31.33;11.67;;;1.70;99.90;;;;;;5072502;28;20123;-80
2022/12/11 11:35:25;;;;;;;25.90;10.20;;;1.40;99.90;;;;;;5072436;28;20052;-80
2022/12/11 11:38:03;;;;;;;32.57;12.70;;;1.40;99.90;;;;;;5071134;28;20098;-80
2022/12/11 11:40:35;;;;;;;28.97;9.70;;;1.40;99.90;;;;;;5056346;28;20070;-83
2022/12/11 11:43:30;;;;;;;33.63;11.40;;;1.40;99.90;;;;;;5055669;28;20047;-82
2022/12/11 11:46:02;;;;;;;28.17;11.43;;;1.90;99.90;;;;;;5064771;28;20048;-82
2022/12/11 11:48:46;;;;;;;30.30;11.10;;;1.40;99.90;;;;;;5055352;28;20123;-80
2022/12/11 11:51:33;;;;;;;33.73;12.60;;;1.50;99.90;;;;;;5078417;28;20044;-80
2022/12/11 11:54:04;;;;;;;27.75;9.77;;;1.40;99.90;;;;;;5092350;28;20040;-80
2022/12/11 11:56:36;;;;;;;33.17;10.20;;;1.40;99.90;;;;;;5075476;28;20051;-80
2022/12/11 11:59:10;;;;;;;28.00;11.27;;;1.40;99.90;;;;;;5075234;28;20051;-80
2022/12/11 12:01:36;;;;;;;28.40;10.70;;;1.50;99.90;;;;;;5092195;28;20072;-80
2022/12/11 12:04:03;;;;;;;28.00;9.43;;;1.50;99.90;;;;;;5091856;28;20047;-80
2022/12/11 12:06:46;;;;;;;27.67;10.07;;;1.50;99.90;;;;;;5092393;28;20043;-80
2022/12/11 12:09:21;;;;;;;25.10;10.73;;;1.50;99.90;;;;;;5092067;28;20040;-80
2022/12/11 12:12:09;;;;;;;34.80;11.13;;;1.50;99.90;;;;;;5091986;28;20048;-80
2022/12/11 12:15:03;;;;;;;27.10;10.30;;;1.60;99.90;;;;;;5075282;28;20416;-80
2022/12/11 12:17:44;;;;;;;25.57;10.53;;;1.60;99.90;;;;;;5081937;28;20048;-80
2022/12/11 12:20:31;;;;;;;27.67;11.80;;;1.60;99.90;;;;;;5055075;28;20044;-80
2022/12/11 12:23:04;;;;;;;26.07;10.57;;;1.60;99.90;;;;;;5071583;28;20040;-81
2022/12/11 12:26:14;;;;;;;24.97;10.20;;;1.70;99.90;;;;;;5054914;28;20043;-81
2022/12/11 12:29:03;;;;;;;34.23;10.43;;;1.70;99.90;;;;;;5050370;28;20082;-81
2022/12/11 12:32:02;;;;;;;27.77;10.00;;;1.70;99.90;;;;;;5033799;28;20041;-81
2022/12/11 12:34:33;;;;;;;24.10;10.33;;;1.70;99.90;;;;;;5067105;28;20063;-81
2022/12/11 12:37:33;;;;;;;26.07;10.83;;;1.80;99.90;;;;;;5071300;28;20054;-81
2022/12/11 12:40:21;;;;;;;25.60;10.17;;;1.70;99.90;;;;;;5071382;28;20040;-81
2022/12/11 12:43:25;;;;;;;27.40;10.13;;;1.70;99.90;;;;;;5054670;28;20037;-81
2022/12/11 12:46:09;;;;;;;26.67;10.40;;;1.60;99.90;;;;;;5037798;28;20041;-81
2022/12/11 12:48:35;;;;;;;29.27;11.50;;;1.80;99.90;;;;;;5054467;28;20067;-81
2022/12/11 12:51:02;;;;;;;34.40;10.97;;;1.80;99.90;;;;;;5059203;28;20521;-81
2022/12/11 12:53:32;;;;;;;24.13;10.13;;;1.80;99.90;;;;;;5057956;28;20424;-82
2022/12/11 12:56:00;;;;;;;24.77;10.33;;;1.80;99.90;;;;;;5091855;28;20118;-82
2022/12/11 12:58:42;;;;;;;30.87;10.40;;;1.80;99.90;;;;;;5074534;28;20565;-82
2022/12/11 13:01:16;;;;;;;30.47;10.30;;;1.80;99.90;;;;;;5075017;28;20040;-86
2022/12/11 13:04:00;;;;;;;27.87;10.87;;;1.70;99.90;;;;;;5074538;28;20040;-85
2022/12/11 13:06:41;;;;;;;26.83;10.47;;;1.80;99.90;;;;;;5091619;28;20123;-81